sensor_id;sensor_type;location;lat;lon;timestamp;P1;durP1;ratioP1;P2;durP2;ratioP2
11046;SDS011;5576;50.008;10.596;2023-11-19T00:00:19;2.37;;;1.90;;
11046;SDS011;5576;50.008;10.596;2023-11-19T00:02:45;2.05;;;1.85;;
11046;SDS011;5576;50.008;10.596;2023-11-19T00:05:12;1.83;;;1.67;;
11046;SDS011;5576;50.008;10.596;2023-11-19T00:07:39;2.17;;;1.83;;
11046;SDS011;5576;50.008;10.596;2023-11-19T00:10:14;2.22;;;2.00;;
11046;SDS011;5576;50.008;10.596;2023-11-19T00:12:44;2.22;;;1.95;;
11046;SDS011;5576;50.008;10.596;2023-11-19T00:15:11;2.17;;;1.70;;
11046;SDS011;5576;50.008;10.596;2023-11-19T00:17:38;1.75;;;1.58;;
11046;SDS011;5576;50.008;10.596;2023-11-19T00:20:12;2.15;;;1.80;;
11046;SDS011;5576;50.008;10.596;2023-11-19T00:22:38;2.17;;;1.70;;
11046;SDS011;5576;50.008;10.596;2023-11-19T00:25:05;1.70;;;1.60;;
11046;SDS011;5576;50.008;10.596;2023-11-19T00:27:31;2.17;;;1.77;;
11046;SDS011;5576;50.008;10.596;2023-11-19T00:29:57;2.92;;;1.90;;
11046;SDS011;5576;50.008;10.596;2023-11-19T00:32:22;1.75;;;1.60;;
11046;SDS011;5576;50.008;10.596;2023-11-19T00:34:48;1.83;;;1.60;;
11046;SDS011;5576;50.008;10.596;2023-11-19T00:37:14;1.70;;;1.40;;
11046;SDS011;5576;50.008;10.596;2023-11-19T00:39:41;1.90;;;1.60;;
11046;SDS011;5576;50.008;10.596;2023-11-19T00:42:07;2.10;;;1.52;;
11046;SDS011;5576;50.008;10.596;2023-11-19T00:44:33;2.47;;;1.75;;
11046;SDS011;5576;50.008;10.596;2023-11-19T00:46:58;2.60;;;1.60;;
11046;SDS011;5576;50.008;10.596;2023-11-19T00:49:25;2.17;;;1.80;;
11046;SDS011;5576;50.008;10.596;2023-11-19T00:51:51;2.10;;;1.60;;
11046;SDS011;5576;50.008;10.596;2023-11-19T00:54:17;1.95;;;1.50;;
11046;SDS011;5576;50.008;10.596;2023-11-19T00:56:43;1.73;;;1.20;;
11046;SDS011;5576;50.008;10.596;2023-11-19T00:59:09;1.52;;;1.23;;
11046;SDS011;5576;50.008;10.596;2023-11-19T01:01:35;1.40;;;1.30;;
11046;SDS011;5576;50.008;10.596;2023-11-19T01:04:01;1.40;;;1.30;;
11046;SDS011;5576;50.008;10.596;2023-11-19T01:06:29;1.48;;;1.30;;
11046;SDS011;5576;50.008;10.596;2023-11-19T01:08:56;1.73;;;1.30;;
11046;SDS011;5576;50.008;10.596;2023-11-19T01:11:22;2.15;;;1.80;;
11046;SDS011;5576;50.008;10.596;2023-11-19T01:13:49;2.00;;;1.80;;
11046;SDS011;5576;50.008;10.596;2023-11-19T01:16:16;1.30;;;1.20;;
11046;SDS011;5576;50.008;10.596;2023-11-19T01:18:43;1.93;;;1.50;;
11046;SDS011;5576;50.008;10.596;2023-11-19T01:21:09;1.80;;;1.23;;
11046;SDS011;5576;50.008;10.596;2023-11-19T01:23:35;1.60;;;1.50;;
11046;SDS011;5576;50.008;10.596;2023-11-19T01:26:02;2.20;;;1.47;;
11046;SDS011;5576;50.008;10.596;2023-11-19T01:28:30;1.73;;;1.50;;
11046;SDS011;5576;50.008;10.596;2023-11-19T01:30:56;1.75;;;1.50;;
11046;SDS011;5576;50.008;10.596;2023-11-19T01:33:22;2.67;;;1.80;;
11046;SDS011;5576;50.008;10.596;2023-11-19T01:35:48;1.40;;;1.30;;
11046;SDS011;5576;50.008;10.596;2023-11-19T01:38:13;1.70;;;1.40;;
11046;SDS011;5576;50.008;10.596;2023-11-19T01:40:39;1.85;;;1.50;;
11046;SDS011;5576;50.008;10.596;2023-11-19T01:43:05;1.80;;;1.40;;
11046;SDS011;5576;50.008;10.596;2023-11-19T01:45:31;3.17;;;1.55;;
11046;SDS011;5576;50.008;10.596;2023-11-19T01:47:59;2.58;;;1.65;;
11046;SDS011;5576;50.008;10.596;2023-11-19T01:50:30;1.88;;;1.55;;
11046;SDS011;5576;50.008;10.596;2023-11-19T01:52:58;1.60;;;1.40;;
11046;SDS011;5576;50.008;10.596;2023-11-19T01:55:24;1.70;;;1.33;;
11046;SDS011;5576;50.008;10.596;2023-11-19T01:57:53;1.95;;;1.38;;
11046;SDS011;5576;50.008;10.596;2023-11-19T02:00:23;1.92;;;1.50;;
11046;SDS011;5576;50.008;10.596;2023-11-19T02:02:49;1.40;;;1.30;;
11046;SDS011;5576;50.008;10.596;2023-11-19T02:05:17;1.80;;;1.50;;
11046;SDS011;5576;50.008;10.596;2023-11-19T02:07:43;1.48;;;1.38;;
11046;SDS011;5576;50.008;10.596;2023-11-19T02:10:09;1.65;;;1.38;;
11046;SDS011;5576;50.008;10.596;2023-11-19T02:12:40;2.08;;;1.58;;
11046;SDS011;5576;50.008;10.596;2023-11-19T02:15:08;2.60;;;1.83;;
11046;SDS011;5576;50.008;10.596;2023-11-19T02:17:35;2.17;;;1.75;;
11046;SDS011;5576;50.008;10.596;2023-11-19T02:20:03;2.38;;;1.73;;
11046;SDS011;5576;50.008;10.596;2023-11-19T02:22:34;2.03;;;1.70;;
11046;SDS011;5576;50.008;10.596;2023-11-19T02:25:00;2.25;;;1.30;;
11046;SDS011;5576;50.008;10.596;2023-11-19T02:30:12;2.25;;;1.25;;
11046;SDS011;5576;50.008;10.596;2023-11-19T02:32:41;1.30;;;1.10;;
11046;SDS011;5576;50.008;10.596;2023-11-19T02:35:07;1.95;;;1.67;;
11046;SDS011;5576;50.008;10.596;2023-11-19T02:37:34;2.10;;;1.60;;
11046;SDS011;5576;50.008;10.596;2023-11-19T02:40:00;1.40;;;1.30;;
11046;SDS011;5576;50.008;10.596;2023-11-19T02:42:28;1.63;;;1.40;;
11046;SDS011;5576;50.008;10.596;2023-11-19T02:44:54;1.20;;;1.05;;
11046;SDS011;5576;50.008;10.596;2023-11-19T02:47:20;1.30;;;1.17;;
11046;SDS011;5576;50.008;10.596;2023-11-19T02:49:46;1.35;;;1.08;;
11046;SDS011;5576;50.008;10.596;2023-11-19T02:52:13;1.20;;;1.10;;
11046;SDS011;5576;50.008;10.596;2023-11-19T02:54:39;2.42;;;1.33;;
11046;SDS011;5576;50.008;10.596;2023-11-19T02:57:06;3.83;;;2.10;;
11046;SDS011;5576;50.008;10.596;2023-11-19T02:59:35;3.57;;;1.60;;
11046;SDS011;5576;50.008;10.596;2023-11-19T03:02:05;1.60;;;1.10;;
11046;SDS011;5576;50.008;10.596;2023-11-19T03:04:32;1.02;;;0.88;;
11046;SDS011;5576;50.008;10.596;2023-11-19T03:06:58;0.80;;;0.80;;
11046;SDS011;5576;50.008;10.596;2023-11-19T03:09:24;2.53;;;0.87;;
11046;SDS011;5576;50.008;10.596;2023-11-19T03:11:50;1.00;;;0.90;;
11046;SDS011;5576;50.008;10.596;2023-11-19T03:14:16;0.70;;;0.70;;
11046;SDS011;5576;50.008;10.596;2023-11-19T03:16:44;0.93;;;0.80;;
11046;SDS011;5576;50.008;10.596;2023-11-19T03:19:12;1.00;;;0.90;;
11046;SDS011;5576;50.008;10.596;2023-11-19T03:21:37;1.00;;;0.90;;
11046;SDS011;5576;50.008;10.596;2023-11-19T03:24:03;0.98;;;0.60;;
11046;SDS011;5576;50.008;10.596;2023-11-19T03:26:29;1.40;;;1.00;;
11046;SDS011;5576;50.008;10.596;2023-11-19T03:28:55;1.17;;;1.00;;
11046;SDS011;5576;50.008;10.596;2023-11-19T03:31:22;1.35;;;1.13;;
11046;SDS011;5576;50.008;10.596;2023-11-19T03:33:48;0.85;;;0.85;;
11046;SDS011;5576;50.008;10.596;2023-11-19T03:36:13;1.20;;;1.10;;
11046;SDS011;5576;50.008;10.596;2023-11-19T03:38:39;2.25;;;1.10;;
11046;SDS011;5576;50.008;10.596;2023-11-19T03:41:11;1.42;;;1.00;;
11046;SDS011;5576;50.008;10.596;2023-11-19T03:43:38;0.80;;;0.80;;
11046;SDS011;5576;50.008;10.596;2023-11-19T03:46:04;1.05;;;0.80;;
11046;SDS011;5576;50.008;10.596;2023-11-19T03:48:40;0.77;;;0.77;;
11046;SDS011;5576;50.008;10.596;2023-11-19T03:51:05;1.40;;;0.70;;
11046;SDS011;5576;50.008;10.596;2023-11-19T03:53:31;0.83;;;0.70;;
11046;SDS011;5576;50.008;10.596;2023-11-19T03:55:57;0.80;;;0.80;;
11046;SDS011;5576;50.008;10.596;2023-11-19T03:58:23;1.10;;;0.90;;
11046;SDS011;5576;50.008;10.596;2023-11-19T04:00:48;1.73;;;0.82;;
11046;SDS011;5576;50.008;10.596;2023-11-19T04:03:14;1.27;;;0.80;;
11046;SDS011;5576;50.008;10.596;2023-11-19T04:05:40;1.05;;;0.90;;
11046;SDS011;5576;50.008;10.596;2023-11-19T04:08:05;0.63;;;0.63;;
11046;SDS011;5576;50.008;10.596;2023-11-19T04:10:31;1.08;;;0.70;;
11046;SDS011;5576;50.008;10.596;2023-11-19T04:12:57;1.37;;;0.73;;
11046;SDS011;5576;50.008;10.596;2023-11-19T04:15:22;1.17;;;0.80;;
11046;SDS011;5576;50.008;10.596;2023-11-19T04:17:49;0.77;;;0.70;;
11046;SDS011;5576;50.008;10.596;2023-11-19T04:20:14;1.03;;;0.60;;
11046;SDS011;5576;50.008;10.596;2023-11-19T04:22:40;1.20;;;0.80;;
11046;SDS011;5576;50.008;10.596;2023-11-19T04:25:06;0.70;;;0.70;;
11046;SDS011;5576;50.008;10.596;2023-11-19T04:27:32;0.87;;;0.73;;
11046;SDS011;5576;50.008;10.596;2023-11-19T04:29:59;1.08;;;0.80;;
11046;SDS011;5576;50.008;10.596;2023-11-19T04:32:27;0.90;;;0.80;;
11046;SDS011;5576;50.008;10.596;2023-11-19T04:34:52;0.88;;;0.80;;
11046;SDS011;5576;50.008;10.596;2023-11-19T04:37:18;1.00;;;0.90;;
11046;SDS011;5576;50.008;10.596;2023-11-19T04:39:44;1.20;;;1.00;;
11046;SDS011;5576;50.008;10.596;2023-11-19T04:42:11;1.42;;;0.95;;
11046;SDS011;5576;50.008;10.596;2023-11-19T04:44:37;1.00;;;0.80;;
11046;SDS011;5576;50.008;10.596;2023-11-19T04:47:03;0.83;;;0.80;;
11046;SDS011;5576;50.008;10.596;2023-11-19T04:49:29;1.67;;;0.93;;
11046;SDS011;5576;50.008;10.596;2023-11-19T04:51:55;1.10;;;1.00;;
11046;SDS011;5576;50.008;10.596;2023-11-19T04:54:21;1.85;;;1.10;;
11046;SDS011;5576;50.008;10.596;2023-11-19T04:56:47;1.57;;;1.23;;
11046;SDS011;5576;50.008;10.596;2023-11-19T04:59:13;1.38;;;1.27;;
11046;SDS011;5576;50.008;10.596;2023-11-19T05:01:39;1.33;;;1.23;;
11046;SDS011;5576;50.008;10.596;2023-11-19T05:04:05;1.55;;;1.30;;
11046;SDS011;5576;50.008;10.596;2023-11-19T05:06:32;1.38;;;1.20;;
11046;SDS011;5576;50.008;10.596;2023-11-19T05:08:59;1.57;;;1.37;;
11046;SDS011;5576;50.008;10.596;2023-11-19T05:11:26;1.45;;;1.20;;
11046;SDS011;5576;50.008;10.596;2023-11-19T05:13:53;1.60;;;1.20;;
11046;SDS011;5576;50.008;10.596;2023-11-19T05:16:19;1.30;;;1.20;;
11046;SDS011;5576;50.008;10.596;2023-11-19T05:18:46;1.25;;;1.10;;
11046;SDS011;5576;50.008;10.596;2023-11-19T05:21:12;1.70;;;1.35;;
11046;SDS011;5576;50.008;10.596;2023-11-19T05:23:38;1.60;;;1.30;;
11046;SDS011;5576;50.008;10.596;2023-11-19T05:26:04;1.92;;;1.33;;
11046;SDS011;5576;50.008;10.596;2023-11-19T05:28:30;1.80;;;1.30;;
11046;SDS011;5576;50.008;10.596;2023-11-19T05:30:56;1.50;;;1.40;;
11046;SDS011;5576;50.008;10.596;2023-11-19T05:33:22;1.75;;;1.40;;
11046;SDS011;5576;50.008;10.596;2023-11-19T05:35:48;1.50;;;1.40;;
11046;SDS011;5576;50.008;10.596;2023-11-19T05:38:13;1.42;;;1.30;;
11046;SDS011;5576;50.008;10.596;2023-11-19T05:40:40;1.73;;;1.47;;
11046;SDS011;5576;50.008;10.596;2023-11-19T05:43:06;1.30;;;1.20;;
11046;SDS011;5576;50.008;10.596;2023-11-19T05:45:32;1.20;;;1.10;;
11046;SDS011;5576;50.008;10.596;2023-11-19T05:47:58;1.30;;;1.00;;
11046;SDS011;5576;50.008;10.596;2023-11-19T05:50:23;0.70;;;0.70;;
11046;SDS011;5576;50.008;10.596;2023-11-19T05:52:49;0.60;;;0.60;;
11046;SDS011;5576;50.008;10.596;2023-11-19T05:55:15;0.85;;;0.70;;
11046;SDS011;5576;50.008;10.596;2023-11-19T05:57:41;0.60;;;0.60;;
11046;SDS011;5576;50.008;10.596;2023-11-19T06:00:07;1.50;;;0.60;;
11046;SDS011;5576;50.008;10.596;2023-11-19T06:02:37;0.40;;;0.40;;
11046;SDS011;5576;50.008;10.596;2023-11-19T06:05:04;0.50;;;0.50;;
11046;SDS011;5576;50.008;10.596;2023-11-19T06:07:31;0.50;;;0.50;;
11046;SDS011;5576;50.008;10.596;2023-11-19T06:09:57;0.40;;;0.40;;
11046;SDS011;5576;50.008;10.596;2023-11-19T06:12:23;0.50;;;0.50;;
11046;SDS011;5576;50.008;10.596;2023-11-19T06:14:49;0.60;;;0.60;;
11046;SDS011;5576;50.008;10.596;2023-11-19T06:17:14;0.68;;;0.60;;
11046;SDS011;5576;50.008;10.596;2023-11-19T06:19:40;0.70;;;0.70;;
11046;SDS011;5576;50.008;10.596;2023-11-19T06:22:06;0.60;;;0.60;;
11046;SDS011;5576;50.008;10.596;2023-11-19T06:24:31;0.60;;;0.60;;
11046;SDS011;5576;50.008;10.596;2023-11-19T06:26:57;0.60;;;0.60;;
11046;SDS011;5576;50.008;10.596;2023-11-19T06:29:23;0.70;;;0.67;;
11046;SDS011;5576;50.008;10.596;2023-11-19T06:31:50;0.98;;;0.60;;
11046;SDS011;5576;50.008;10.596;2023-11-19T06:34:16;0.63;;;0.63;;
11046;SDS011;5576;50.008;10.596;2023-11-19T06:36:42;0.60;;;0.60;;
11046;SDS011;5576;50.008;10.596;2023-11-19T06:39:09;0.60;;;0.60;;
11046;SDS011;5576;50.008;10.596;2023-11-19T06:41:35;0.90;;;0.90;;
11046;SDS011;5576;50.008;10.596;2023-11-19T06:44:03;0.70;;;0.70;;
11046;SDS011;5576;50.008;10.596;2023-11-19T06:46:29;0.85;;;0.85;;
11046;SDS011;5576;50.008;10.596;2023-11-19T06:48:56;1.20;;;0.70;;
11046;SDS011;5576;50.008;10.596;2023-11-19T06:51:22;0.90;;;0.80;;
11046;SDS011;5576;50.008;10.596;2023-11-19T06:53:49;0.75;;;0.75;;
11046;SDS011;5576;50.008;10.596;2023-11-19T06:58:47;0.80;;;0.80;;
11046;SDS011;5576;50.008;10.596;2023-11-19T07:01:14;0.70;;;0.70;;
11046;SDS011;5576;50.008;10.596;2023-11-19T07:03:40;0.80;;;0.80;;
11046;SDS011;5576;50.008;10.596;2023-11-19T07:06:06;1.67;;;0.90;;
11046;SDS011;5576;50.008;10.596;2023-11-19T07:08:32;1.00;;;0.90;;
11046;SDS011;5576;50.008;10.596;2023-11-19T07:10:57;0.80;;;0.80;;
11046;SDS011;5576;50.008;10.596;2023-11-19T07:13:23;1.20;;;0.80;;
11046;SDS011;5576;50.008;10.596;2023-11-19T07:15:49;1.58;;;0.90;;
11046;SDS011;5576;50.008;10.596;2023-11-19T07:18:15;1.10;;;1.00;;
11046;SDS011;5576;50.008;10.596;2023-11-19T07:20:41;1.33;;;1.00;;
11046;SDS011;5576;50.008;10.596;2023-11-19T07:23:07;1.77;;;1.10;;
11046;SDS011;5576;50.008;10.596;2023-11-19T07:25:33;1.23;;;1.13;;
11046;SDS011;5576;50.008;10.596;2023-11-19T07:28:00;1.10;;;1.00;;
11046;SDS011;5576;50.008;10.596;2023-11-19T07:30:30;2.00;;;1.30;;
11046;SDS011;5576;50.008;10.596;2023-11-19T07:32:55;1.90;;;1.70;;
11046;SDS011;5576;50.008;10.596;2023-11-19T07:35:21;1.63;;;1.30;;
11046;SDS011;5576;50.008;10.596;2023-11-19T07:37:47;1.87;;;1.63;;
11046;SDS011;5576;50.008;10.596;2023-11-19T07:40:13;2.97;;;2.58;;
11046;SDS011;5576;50.008;10.596;2023-11-19T07:42:39;3.28;;;2.50;;
11046;SDS011;5576;50.008;10.596;2023-11-19T07:45:05;2.13;;;1.93;;
11046;SDS011;5576;50.008;10.596;2023-11-19T07:47:32;2.33;;;2.13;;
11046;SDS011;5576;50.008;10.596;2023-11-19T07:49:58;1.95;;;1.75;;
11046;SDS011;5576;50.008;10.596;2023-11-19T07:52:23;2.10;;;1.90;;
11046;SDS011;5576;50.008;10.596;2023-11-19T07:54:49;3.15;;;2.80;;
11046;SDS011;5576;50.008;10.596;2023-11-19T07:57:15;1.87;;;1.70;;
11046;SDS011;5576;50.008;10.596;2023-11-19T07:59:40;2.30;;;2.10;;
11046;SDS011;5576;50.008;10.596;2023-11-19T08:02:06;2.37;;;1.70;;
11046;SDS011;5576;50.008;10.596;2023-11-19T08:04:32;1.52;;;1.42;;
11046;SDS011;5576;50.008;10.596;2023-11-19T08:06:58;1.30;;;1.20;;
11046;SDS011;5576;50.008;10.596;2023-11-19T08:09:24;1.70;;;1.60;;
11046;SDS011;5576;50.008;10.596;2023-11-19T08:11:50;2.45;;;1.70;;
11046;SDS011;5576;50.008;10.596;2023-11-19T08:14:16;3.40;;;3.10;;
11046;SDS011;5576;50.008;10.596;2023-11-19T08:16:42;2.67;;;2.43;;
11046;SDS011;5576;50.008;10.596;2023-11-19T08:19:07;2.03;;;1.90;;
11046;SDS011;5576;50.008;10.596;2023-11-19T08:21:33;2.20;;;1.60;;
11046;SDS011;5576;50.008;10.596;2023-11-19T08:23:59;1.60;;;1.50;;
11046;SDS011;5576;50.008;10.596;2023-11-19T08:26:25;1.90;;;1.63;;
11046;SDS011;5576;50.008;10.596;2023-11-19T08:28:50;1.45;;;1.10;;
11046;SDS011;5576;50.008;10.596;2023-11-19T08:31:17;1.35;;;0.75;;
11046;SDS011;5576;50.008;10.596;2023-11-19T08:33:43;1.17;;;0.90;;
11046;SDS011;5576;50.008;10.596;2023-11-19T08:36:08;1.20;;;1.10;;
11046;SDS011;5576;50.008;10.596;2023-11-19T08:38:41;1.30;;;1.20;;
11046;SDS011;5576;50.008;10.596;2023-11-19T08:41:07;0.93;;;0.90;;
11046;SDS011;5576;50.008;10.596;2023-11-19T08:43:33;1.00;;;0.90;;
11046;SDS011;5576;50.008;10.596;2023-11-19T08:45:58;0.63;;;0.57;;
11046;SDS011;5576;50.008;10.596;2023-11-19T08:48:24;0.70;;;0.70;;
11046;SDS011;5576;50.008;10.596;2023-11-19T08:50:51;0.70;;;0.70;;
11046;SDS011;5576;50.008;10.596;2023-11-19T08:53:16;0.73;;;0.70;;
11046;SDS011;5576;50.008;10.596;2023-11-19T08:55:42;1.38;;;1.08;;
11046;SDS011;5576;50.008;10.596;2023-11-19T08:58:08;1.60;;;1.40;;
11046;SDS011;5576;50.008;10.596;2023-11-19T09:00:33;1.40;;;1.17;;
11046;SDS011;5576;50.008;10.596;2023-11-19T09:02:59;0.90;;;0.70;;
11046;SDS011;5576;50.008;10.596;2023-11-19T09:05:25;1.08;;;0.90;;
11046;SDS011;5576;50.008;10.596;2023-11-19T09:07:50;0.70;;;0.70;;
11046;SDS011;5576;50.008;10.596;2023-11-19T09:10:16;1.63;;;0.63;;
11046;SDS011;5576;50.008;10.596;2023-11-19T09:12:42;1.00;;;0.90;;
11046;SDS011;5576;50.008;10.596;2023-11-19T09:15:08;0.60;;;0.60;;
11046;SDS011;5576;50.008;10.596;2023-11-19T09:17:35;0.47;;;0.47;;
11046;SDS011;5576;50.008;10.596;2023-11-19T09:20:01;0.70;;;0.63;;
11046;SDS011;5576;50.008;10.596;2023-11-19T09:22:27;0.43;;;0.40;;
11046;SDS011;5576;50.008;10.596;2023-11-19T09:24:53;0.50;;;0.50;;
11046;SDS011;5576;50.008;10.596;2023-11-19T09:27:19;1.52;;;0.52;;
11046;SDS011;5576;50.008;10.596;2023-11-19T09:29:45;1.00;;;0.50;;
11046;SDS011;5576;50.008;10.596;2023-11-19T09:32:14;0.75;;;0.40;;
11046;SDS011;5576;50.008;10.596;2023-11-19T09:34:39;0.80;;;0.40;;
11046;SDS011;5576;50.008;10.596;2023-11-19T09:37:05;0.80;;;0.70;;
11046;SDS011;5576;50.008;10.596;2023-11-19T09:39:31;0.60;;;0.60;;
11046;SDS011;5576;50.008;10.596;2023-11-19T09:41:56;0.73;;;0.60;;
11046;SDS011;5576;50.008;10.596;2023-11-19T09:44:23;0.77;;;0.60;;
11046;SDS011;5576;50.008;10.596;2023-11-19T09:46:49;0.77;;;0.60;;
11046;SDS011;5576;50.008;10.596;2023-11-19T09:49:15;1.03;;;0.87;;
11046;SDS011;5576;50.008;10.596;2023-11-19T09:51:46;1.17;;;0.95;;
11046;SDS011;5576;50.008;10.596;2023-11-19T09:54:12;1.87;;;0.80;;
11046;SDS011;5576;50.008;10.596;2023-11-19T09:56:38;1.00;;;0.60;;
11046;SDS011;5576;50.008;10.596;2023-11-19T09:59:04;1.15;;;0.60;;
11046;SDS011;5576;50.008;10.596;2023-11-19T10:01:30;1.10;;;0.60;;
11046;SDS011;5576;50.008;10.596;2023-11-19T10:03:57;1.17;;;0.60;;
11046;SDS011;5576;50.008;10.596;2023-11-19T10:06:24;0.80;;;0.65;;
11046;SDS011;5576;50.008;10.596;2023-11-19T10:08:51;1.00;;;0.70;;
11046;SDS011;5576;50.008;10.596;2023-11-19T10:11:17;0.90;;;0.77;;
11046;SDS011;5576;50.008;10.596;2023-11-19T10:13:43;1.25;;;1.00;;
11046;SDS011;5576;50.008;10.596;2023-11-19T10:16:12;3.58;;;1.38;;
11046;SDS011;5576;50.008;10.596;2023-11-19T10:18:46;1.60;;;1.00;;
11046;SDS011;5576;50.008;10.596;2023-11-19T10:21:14;1.45;;;1.02;;
11046;SDS011;5576;50.008;10.596;2023-11-19T10:23:49;1.10;;;0.80;;
11046;SDS011;5576;50.008;10.596;2023-11-19T10:26:17;2.80;;;1.05;;
11046;SDS011;5576;50.008;10.596;2023-11-19T10:28:45;1.42;;;0.80;;
11046;SDS011;5576;50.008;10.596;2023-11-19T10:31:13;1.10;;;0.70;;
11046;SDS011;5576;50.008;10.596;2023-11-19T10:33:40;4.53;;;2.58;;
11046;SDS011;5576;50.008;10.596;2023-11-19T10:36:06;2.55;;;1.60;;
11046;SDS011;5576;50.008;10.596;2023-11-19T10:38:32;4.47;;;3.13;;
11046;SDS011;5576;50.008;10.596;2023-11-19T10:40:58;3.70;;;2.67;;
11046;SDS011;5576;50.008;10.596;2023-11-19T10:43:24;4.18;;;2.65;;
11046;SDS011;5576;50.008;10.596;2023-11-19T10:45:51;4.60;;;3.50;;
11046;SDS011;5576;50.008;10.596;2023-11-19T10:48:17;8.95;;;6.78;;
11046;SDS011;5576;50.008;10.596;2023-11-19T10:50:44;5.32;;;4.18;;
11046;SDS011;5576;50.008;10.596;2023-11-19T10:53:11;4.40;;;2.63;;
11046;SDS011;5576;50.008;10.596;2023-11-19T10:55:39;4.28;;;3.15;;
11046;SDS011;5576;50.008;10.596;2023-11-19T10:58:05;2.37;;;1.80;;
11046;SDS011;5576;50.008;10.596;2023-11-19T11:00:34;2.95;;;2.40;;
11046;SDS011;5576;50.008;10.596;2023-11-19T11:03:07;16.65;;;11.70;;
11046;SDS011;5576;50.008;10.596;2023-11-19T11:05:52;6.82;;;4.60;;
11046;SDS011;5576;50.008;10.596;2023-11-19T11:08:19;6.20;;;4.75;;
11046;SDS011;5576;50.008;10.596;2023-11-19T11:10:46;3.97;;;2.70;;
11046;SDS011;5576;50.008;10.596;2023-11-19T11:13:18;4.00;;;3.10;;
11046;SDS011;5576;50.008;10.596;2023-11-19T11:15:44;6.55;;;4.78;;
11046;SDS011;5576;50.008;10.596;2023-11-19T11:18:12;4.20;;;3.25;;
11046;SDS011;5576;50.008;10.596;2023-11-19T11:20:38;6.13;;;3.93;;
11046;SDS011;5576;50.008;10.596;2023-11-19T11:28:44;4.83;;;3.20;;
11046;SDS011;5576;50.008;10.596;2023-11-19T11:31:37;4.07;;;3.00;;
11046;SDS011;5576;50.008;10.596;2023-11-19T11:39:51;5.03;;;3.30;;
11046;SDS011;5576;50.008;10.596;2023-11-19T11:44:57;4.47;;;2.60;;
11046;SDS011;5576;50.008;10.596;2023-11-19T11:47:25;4.70;;;2.60;;
11046;SDS011;5576;50.008;10.596;2023-11-19T11:49:51;4.43;;;2.92;;
11046;SDS011;5576;50.008;10.596;2023-11-19T11:52:18;4.97;;;3.10;;
11046;SDS011;5576;50.008;10.596;2023-11-19T11:54:45;4.60;;;2.78;;
11046;SDS011;5576;50.008;10.596;2023-11-19T11:57:12;4.75;;;2.85;;
11046;SDS011;5576;50.008;10.596;2023-11-19T12:02:11;4.28;;;3.15;;
11046;SDS011;5576;50.008;10.596;2023-11-19T12:04:38;4.32;;;2.75;;
11046;SDS011;5576;50.008;10.596;2023-11-19T12:07:06;4.50;;;3.17;;
11046;SDS011;5576;50.008;10.596;2023-11-19T12:09:40;3.83;;;2.85;;
11046;SDS011;5576;50.008;10.596;2023-11-19T12:12:26;3.85;;;2.58;;
11046;SDS011;5576;50.008;10.596;2023-11-19T12:15:09;6.38;;;4.57;;
11046;SDS011;5576;50.008;10.596;2023-11-19T12:17:36;5.77;;;4.43;;
11046;SDS011;5576;50.008;10.596;2023-11-19T12:20:09;4.40;;;2.30;;
11046;SDS011;5576;50.008;10.596;2023-11-19T12:22:37;6.93;;;2.97;;
11046;SDS011;5576;50.008;10.596;2023-11-19T12:25:05;5.43;;;2.30;;
11046;SDS011;5576;50.008;10.596;2023-11-19T12:27:32;2.88;;;1.40;;
11046;SDS011;5576;50.008;10.596;2023-11-19T12:30:03;3.10;;;1.83;;
11046;SDS011;5576;50.008;10.596;2023-11-19T12:32:45;4.72;;;1.50;;
11046;SDS011;5576;50.008;10.596;2023-11-19T12:35:11;2.95;;;1.40;;
11046;SDS011;5576;50.008;10.596;2023-11-19T12:37:45;3.85;;;1.80;;
11046;SDS011;5576;50.008;10.596;2023-11-19T12:40:17;6.93;;;3.05;;
11046;SDS011;5576;50.008;10.596;2023-11-19T12:42:45;9.13;;;3.00;;
11046;SDS011;5576;50.008;10.596;2023-11-19T12:45:11;5.43;;;2.20;;
11046;SDS011;5576;50.008;10.596;2023-11-19T12:47:39;4.00;;;1.87;;
11046;SDS011;5576;50.008;10.596;2023-11-19T12:50:06;7.38;;;2.35;;
11046;SDS011;5576;50.008;10.596;2023-11-19T12:52:35;2.92;;;1.70;;
11046;SDS011;5576;50.008;10.596;2023-11-19T12:55:03;2.90;;;1.80;;
11046;SDS011;5576;50.008;10.596;2023-11-19T12:57:47;6.05;;;1.55;;
11046;SDS011;5576;50.008;10.596;2023-11-19T13:00:21;4.13;;;1.10;;
11046;SDS011;5576;50.008;10.596;2023-11-19T13:02:50;3.00;;;1.05;;
11046;SDS011;5576;50.008;10.596;2023-11-19T13:05:21;3.35;;;1.15;;
11046;SDS011;5576;50.008;10.596;2023-11-19T13:07:47;5.05;;;1.90;;
11046;SDS011;5576;50.008;10.596;2023-11-19T13:10:13;2.10;;;1.20;;
11046;SDS011;5576;50.008;10.596;2023-11-19T13:12:40;3.60;;;1.48;;
11046;SDS011;5576;50.008;10.596;2023-11-19T13:15:08;4.47;;;1.45;;
11046;SDS011;5576;50.008;10.596;2023-11-19T13:17:48;3.63;;;1.30;;
11046;SDS011;5576;50.008;10.596;2023-11-19T13:20:14;5.50;;;1.20;;
11046;SDS011;5576;50.008;10.596;2023-11-19T13:25:26;5.05;;;1.40;;
11046;SDS011;5576;50.008;10.596;2023-11-19T13:27:53;5.30;;;1.33;;
11046;SDS011;5576;50.008;10.596;2023-11-19T13:30:19;3.50;;;1.27;;
11046;SDS011;5576;50.008;10.596;2023-11-19T13:32:45;3.75;;;1.40;;
11046;SDS011;5576;50.008;10.596;2023-11-19T13:35:12;2.97;;;1.42;;
11046;SDS011;5576;50.008;10.596;2023-11-19T13:37:38;3.83;;;1.17;;
11046;SDS011;5576;50.008;10.596;2023-11-19T13:40:05;4.47;;;1.70;;
11046;SDS011;5576;50.008;10.596;2023-11-19T13:42:32;3.95;;;1.58;;
11046;SDS011;5576;50.008;10.596;2023-11-19T13:44:58;4.13;;;1.42;;
11046;SDS011;5576;50.008;10.596;2023-11-19T13:47:24;3.47;;;1.10;;
11046;SDS011;5576;50.008;10.596;2023-11-19T13:49:50;4.60;;;1.40;;
11046;SDS011;5576;50.008;10.596;2023-11-19T13:52:16;3.10;;;1.40;;
11046;SDS011;5576;50.008;10.596;2023-11-19T13:54:42;4.20;;;1.23;;
11046;SDS011;5576;50.008;10.596;2023-11-19T13:57:07;4.30;;;1.50;;
11046;SDS011;5576;50.008;10.596;2023-11-19T13:59:34;3.78;;;2.00;;
11046;SDS011;5576;50.008;10.596;2023-11-19T14:02:06;4.23;;;1.50;;
11046;SDS011;5576;50.008;10.596;2023-11-19T14:04:32;4.15;;;1.70;;
11046;SDS011;5576;50.008;10.596;2023-11-19T14:06:58;4.20;;;1.83;;
11046;SDS011;5576;50.008;10.596;2023-11-19T14:09:24;4.60;;;2.40;;
11046;SDS011;5576;50.008;10.596;2023-11-19T14:11:50;3.70;;;1.80;;
11046;SDS011;5576;50.008;10.596;2023-11-19T14:14:16;3.95;;;1.90;;
11046;SDS011;5576;50.008;10.596;2023-11-19T14:16:42;2.85;;;1.50;;
11046;SDS011;5576;50.008;10.596;2023-11-19T14:19:08;4.43;;;1.67;;
11046;SDS011;5576;50.008;10.596;2023-11-19T14:21:33;4.17;;;2.03;;
11046;SDS011;5576;50.008;10.596;2023-11-19T14:23:59;4.63;;;1.90;;
11046;SDS011;5576;50.008;10.596;2023-11-19T14:26:25;5.47;;;2.27;;
11046;SDS011;5576;50.008;10.596;2023-11-19T14:28:51;4.90;;;2.25;;
11046;SDS011;5576;50.008;10.596;2023-11-19T14:31:16;5.63;;;2.42;;
11046;SDS011;5576;50.008;10.596;2023-11-19T14:33:43;4.80;;;2.47;;
11046;SDS011;5576;50.008;10.596;2023-11-19T14:36:08;7.65;;;2.70;;
11046;SDS011;5576;50.008;10.596;2023-11-19T14:38:35;5.15;;;2.45;;
11046;SDS011;5576;50.008;10.596;2023-11-19T14:41:01;18.13;;;9.48;;
11046;SDS011;5576;50.008;10.596;2023-11-19T14:43:27;10.90;;;5.83;;
11046;SDS011;5576;50.008;10.596;2023-11-19T14:45:52;6.22;;;3.38;;
11046;SDS011;5576;50.008;10.596;2023-11-19T14:48:18;5.27;;;2.30;;
11046;SDS011;5576;50.008;10.596;2023-11-19T14:50:44;5.68;;;2.95;;
11046;SDS011;5576;50.008;10.596;2023-11-19T14:53:10;6.40;;;3.67;;
11046;SDS011;5576;50.008;10.596;2023-11-19T14:55:36;6.13;;;3.60;;
11046;SDS011;5576;50.008;10.596;2023-11-19T14:58:02;5.55;;;2.13;;
11046;SDS011;5576;50.008;10.596;2023-11-19T15:00:27;4.50;;;1.55;;
11046;SDS011;5576;50.008;10.596;2023-11-19T15:02:54;2.70;;;1.50;;
11046;SDS011;5576;50.008;10.596;2023-11-19T15:05:19;4.03;;;1.67;;
11046;SDS011;5576;50.008;10.596;2023-11-19T15:07:46;5.32;;;1.92;;
11046;SDS011;5576;50.008;10.596;2023-11-19T15:10:13;5.30;;;1.65;;